Terminal Aerodrome Forecast
Issued by NWS Greer, SC

Home | Current Version | Previous Version | Text Only | Print | Product List | Glossary On
Versions: 1 2 3 4 5 6 7 8 9 10 11 12 13 14 15 16 17 18 19 20 21 22 23 24 25 26 27 28 29
000
FTUS42 KGSP 201148 CCA
TAFAVL
TAF COR
KAVL 201148Z 2012/2112 18003KT P6SM -RA BKN027 OVC060
     FM201900 14003KT P6SM BKN023
     FM202100 VRB03KT P6SM BKN045
     FM210300 VRB03KT 5SM BR BKN045
     FM210700 00000KT 2SM BR BKN030
     FM210900 00000KT 1/2SM FZFG BKN010=

USA.gov is the U.S. government's official web portal to all federal, state and local government web resources and services.